KRMN

Stafford Regional Airport

Stafford, Virginia, USA
METAR KRMN 201655Z AUTO 00000KT 10SM BKN044 BKN050 16/16 A2983 RMK AO2 T01550155
Observed Flight Rules
Oct-20 @ 16:55 UTC (16 minutes ago) Visual Flight Rules
Visibility Clouds
10 miles
  • Broken at 4,400' AGL
  • Broken at 5,000' AGL
Temperatures Readings
Current 16°C / 61°F
Dewpoint 16°C / 61°F
Humidity 100%
Altimeter 29.83" Hg
Pressure 1010 hPa
Elevation 65
METAR KRMN 201655Z AUTO 00000KT 10SM BKN044 BKN050 16/16 A2983 RMK AO2 T01550155
Observed Flight Rules
Oct-20 @ 16:55 UTC
(16 minutes ago)
VFR
Clouds
  • Broken at 4,400' AGL
  • Broken at 5,000' AGL
Temperature Dewpoint
16°C / 61°F 16°C / 61°F
Humidity Altimeter Pressure
100% 29.83" Hg 1010 hPa